Chuxiong, China
Current Conditions -  °F | °C
As of 2:00 AM on Saturday 22 Nov 2014 (Local Time) from ZPPP Reporting Station
Broken Clouds Broken Clouds  
Wind Chill: 52°   Ceiling: 4600
Heat Index: 52°   Visibility: 6mi
Dew Point: 45°   Wind: 7mph
Humidity: 76%   Direction: 220°SW
Pressure: 30.15"   Gusts: NA
Location:  25.02°N, 101.53°E
Report Text: ZPPP 211800Z 22003MPS 9999 BKN046 11/07 Q1021 NOSIG
Loading
Personal Weather Stations






























Interactive Weather Map New forecast layout! Learn more

10-Day Weather Forecast

Advertisements
Track Severe Weather on mobile